sensor_id;sensor_type;location;lat;lon;timestamp;P1;durP1;ratioP1;P2;durP2;ratioP2
66575;SDS011;53428;47.686;16.584;2023-05-19T00:01:41;16.15;;;4.50;;
66575;SDS011;53428;47.686;16.584;2023-05-19T00:06:42;11.40;;;5.50;;
66575;SDS011;53428;47.686;16.584;2023-05-19T00:11:44;5.50;;;4.68;;
66575;SDS011;53428;47.686;16.584;2023-05-19T00:16:44;10.23;;;5.47;;
66575;SDS011;53428;47.686;16.584;2023-05-19T00:21:45;12.02;;;4.93;;
66575;SDS011;53428;47.686;16.584;2023-05-19T00:26:44;8.75;;;4.72;;
66575;SDS011;53428;47.686;16.584;2023-05-19T00:31:43;9.27;;;4.10;;
66575;SDS011;53428;47.686;16.584;2023-05-19T00:36:43;13.23;;;5.15;;
66575;SDS011;53428;47.686;16.584;2023-05-19T00:41:42;11.27;;;5.07;;
66575;SDS011;53428;47.686;16.584;2023-05-19T00:46:41;9.77;;;4.60;;
66575;SDS011;53428;47.686;16.584;2023-05-19T00:51:41;10.13;;;4.43;;
66575;SDS011;53428;47.686;16.584;2023-05-19T00:56:40;15.63;;;4.85;;
66575;SDS011;53428;47.686;16.584;2023-05-19T01:01:40;14.50;;;5.20;;
66575;SDS011;53428;47.686;16.584;2023-05-19T01:06:39;9.43;;;4.65;;
66575;SDS011;53428;47.686;16.584;2023-05-19T01:11:39;6.00;;;4.68;;
66575;SDS011;53428;47.686;16.584;2023-05-19T01:16:39;10.57;;;5.47;;
66575;SDS011;53428;47.686;16.584;2023-05-19T01:26:58;12.00;;;6.22;;
66575;SDS011;53428;47.686;16.584;2023-05-19T01:32:19;11.00;;;5.45;;
66575;SDS011;53428;47.686;16.584;2023-05-19T01:37:19;22.88;;;7.50;;
66575;SDS011;53428;47.686;16.584;2023-05-19T01:42:19;12.80;;;5.65;;
66575;SDS011;53428;47.686;16.584;2023-05-19T01:47:21;14.13;;;6.13;;
66575;SDS011;53428;47.686;16.584;2023-05-19T01:52:21;15.30;;;6.00;;
66575;SDS011;53428;47.686;16.584;2023-05-19T01:57:24;12.18;;;5.43;;
66575;SDS011;53428;47.686;16.584;2023-05-19T02:02:44;12.13;;;6.13;;
66575;SDS011;53428;47.686;16.584;2023-05-19T02:07:57;9.93;;;5.40;;
66575;SDS011;53428;47.686;16.584;2023-05-19T02:13:07;10.45;;;5.53;;
66575;SDS011;53428;47.686;16.584;2023-05-19T02:18:10;10.20;;;5.70;;
66575;SDS011;53428;47.686;16.584;2023-05-19T02:23:11;11.88;;;5.80;;
66575;SDS011;53428;47.686;16.584;2023-05-19T02:28:11;12.07;;;6.28;;
66575;SDS011;53428;47.686;16.584;2023-05-19T02:33:10;13.93;;;7.03;;
66575;SDS011;53428;47.686;16.584;2023-05-19T02:38:10;23.48;;;7.30;;
66575;SDS011;53428;47.686;16.584;2023-05-19T02:43:09;11.65;;;7.32;;
66575;SDS011;53428;47.686;16.584;2023-05-19T02:48:09;15.50;;;7.93;;
66575;SDS011;53428;47.686;16.584;2023-05-19T02:53:08;10.27;;;6.68;;
66575;SDS011;53428;47.686;16.584;2023-05-19T02:58:08;18.88;;;8.05;;
66575;SDS011;53428;47.686;16.584;2023-05-19T03:03:07;14.18;;;7.85;;
66575;SDS011;53428;47.686;16.584;2023-05-19T03:08:08;20.60;;;9.10;;
66575;SDS011;53428;47.686;16.584;2023-05-19T03:13:08;14.85;;;8.15;;
66575;SDS011;53428;47.686;16.584;2023-05-19T03:18:07;13.70;;;7.82;;
66575;SDS011;53428;47.686;16.584;2023-05-19T03:23:06;15.63;;;8.27;;
66575;SDS011;53428;47.686;16.584;2023-05-19T03:28:06;11.57;;;7.90;;
66575;SDS011;53428;47.686;16.584;2023-05-19T03:33:06;15.02;;;8.40;;
66575;SDS011;53428;47.686;16.584;2023-05-19T03:38:05;22.52;;;8.20;;
66575;SDS011;53428;47.686;16.584;2023-05-19T03:43:05;15.20;;;9.48;;
66575;SDS011;53428;47.686;16.584;2023-05-19T03:48:05;17.38;;;10.48;;
66575;SDS011;53428;47.686;16.584;2023-05-19T03:53:04;13.73;;;9.00;;
66575;SDS011;53428;47.686;16.584;2023-05-19T03:58:04;14.48;;;8.15;;
66575;SDS011;53428;47.686;16.584;2023-05-19T04:03:04;20.17;;;9.23;;
66575;SDS011;53428;47.686;16.584;2023-05-19T04:08:03;15.27;;;8.48;;
66575;SDS011;53428;47.686;16.584;2023-05-19T04:13:03;16.45;;;9.18;;
66575;SDS011;53428;47.686;16.584;2023-05-19T04:18:02;19.27;;;9.05;;
66575;SDS011;53428;47.686;16.584;2023-05-19T04:23:01;19.77;;;10.20;;
66575;SDS011;53428;47.686;16.584;2023-05-19T04:28:01;15.52;;;9.90;;
66575;SDS011;53428;47.686;16.584;2023-05-19T04:33:01;17.92;;;9.38;;
66575;SDS011;53428;47.686;16.584;2023-05-19T04:38:01;19.88;;;10.48;;
66575;SDS011;53428;47.686;16.584;2023-05-19T04:43:00;17.20;;;10.45;;
66575;SDS011;53428;47.686;16.584;2023-05-19T04:47:59;15.50;;;9.95;;
66575;SDS011;53428;47.686;16.584;2023-05-19T04:52:59;17.40;;;10.45;;
66575;SDS011;53428;47.686;16.584;2023-05-19T04:57:59;19.25;;;10.73;;
66575;SDS011;53428;47.686;16.584;2023-05-19T05:02:58;27.92;;;11.05;;
66575;SDS011;53428;47.686;16.584;2023-05-19T05:07:57;24.90;;;11.15;;
66575;SDS011;53428;47.686;16.584;2023-05-19T05:12:57;23.98;;;12.52;;
66575;SDS011;53428;47.686;16.584;2023-05-19T05:17:56;19.25;;;10.98;;
66575;SDS011;53428;47.686;16.584;2023-05-19T05:22:56;23.48;;;12.07;;
66575;SDS011;53428;47.686;16.584;2023-05-19T05:27:56;19.17;;;11.02;;
66575;SDS011;53428;47.686;16.584;2023-05-19T05:32:56;17.08;;;10.02;;
66575;SDS011;53428;47.686;16.584;2023-05-19T05:37:56;18.05;;;10.18;;
66575;SDS011;53428;47.686;16.584;2023-05-19T05:42:55;22.38;;;10.88;;
66575;SDS011;53428;47.686;16.584;2023-05-19T05:47:56;20.50;;;10.48;;
66575;SDS011;53428;47.686;16.584;2023-05-19T05:52:56;19.73;;;10.85;;
66575;SDS011;53428;47.686;16.584;2023-05-19T05:57:59;20.20;;;11.45;;
66575;SDS011;53428;47.686;16.584;2023-05-19T06:03:00;23.55;;;11.02;;
66575;SDS011;53428;47.686;16.584;2023-05-19T06:08:00;26.95;;;12.82;;
66575;SDS011;53428;47.686;16.584;2023-05-19T06:13:00;19.33;;;11.07;;
66575;SDS011;53428;47.686;16.584;2023-05-19T06:17:59;21.10;;;11.20;;
66575;SDS011;53428;47.686;16.584;2023-05-19T06:22:59;23.50;;;12.93;;
66575;SDS011;53428;47.686;16.584;2023-05-19T06:27:58;19.27;;;12.30;;
66575;SDS011;53428;47.686;16.584;2023-05-19T06:32:58;14.98;;;9.60;;
66575;SDS011;53428;47.686;16.584;2023-05-19T06:37:57;19.70;;;10.55;;
66575;SDS011;53428;47.686;16.584;2023-05-19T06:42:57;14.00;;;9.02;;
66575;SDS011;53428;47.686;16.584;2023-05-19T06:47:56;19.35;;;10.90;;
66575;SDS011;53428;47.686;16.584;2023-05-19T06:52:56;16.02;;;9.45;;
66575;SDS011;53428;47.686;16.584;2023-05-19T06:57:56;13.68;;;8.82;;
66575;SDS011;53428;47.686;16.584;2023-05-19T07:02:55;14.30;;;9.70;;
66575;SDS011;53428;47.686;16.584;2023-05-19T07:07:55;16.27;;;9.05;;
66575;SDS011;53428;47.686;16.584;2023-05-19T07:12:54;14.80;;;8.18;;
66575;SDS011;53428;47.686;16.584;2023-05-19T07:17:53;12.85;;;8.10;;
66575;SDS011;53428;47.686;16.584;2023-05-19T07:22:53;12.15;;;8.48;;
66575;SDS011;53428;47.686;16.584;2023-05-19T07:27:52;14.40;;;8.25;;
66575;SDS011;53428;47.686;16.584;2023-05-19T07:32:51;13.68;;;9.02;;
66575;SDS011;53428;47.686;16.584;2023-05-19T07:37:51;16.50;;;8.05;;
66575;SDS011;53428;47.686;16.584;2023-05-19T07:42:50;14.43;;;9.05;;
66575;SDS011;53428;47.686;16.584;2023-05-19T07:47:49;17.20;;;8.93;;
66575;SDS011;53428;47.686;16.584;2023-05-19T07:52:50;14.50;;;8.25;;
66575;SDS011;53428;47.686;16.584;2023-05-19T07:57:49;12.15;;;7.32;;
66575;SDS011;53428;47.686;16.584;2023-05-19T08:02:48;13.80;;;7.88;;
66575;SDS011;53428;47.686;16.584;2023-05-19T08:07:48;11.68;;;7.43;;
66575;SDS011;53428;47.686;16.584;2023-05-19T08:12:47;7.70;;;6.13;;
66575;SDS011;53428;47.686;16.584;2023-05-19T08:17:47;12.05;;;6.20;;
66575;SDS011;53428;47.686;16.584;2023-05-19T08:22:46;10.68;;;6.70;;
66575;SDS011;53428;47.686;16.584;2023-05-19T08:27:45;12.25;;;5.78;;
66575;SDS011;53428;47.686;16.584;2023-05-19T08:32:45;8.25;;;5.93;;
66575;SDS011;53428;47.686;16.584;2023-05-19T08:37:46;6.22;;;5.03;;
66575;SDS011;53428;47.686;16.584;2023-05-19T08:42:46;8.27;;;5.75;;
66575;SDS011;53428;47.686;16.584;2023-05-19T08:47:45;8.32;;;5.82;;
66575;SDS011;53428;47.686;16.584;2023-05-19T08:52:52;9.95;;;5.85;;
66575;SDS011;53428;47.686;16.584;2023-05-19T08:57:56;7.28;;;5.45;;
66575;SDS011;53428;47.686;16.584;2023-05-19T09:02:55;9.68;;;5.78;;
66575;SDS011;53428;47.686;16.584;2023-05-19T09:07:55;9.85;;;4.90;;
66575;SDS011;53428;47.686;16.584;2023-05-19T09:12:54;9.20;;;5.38;;
66575;SDS011;53428;47.686;16.584;2023-05-19T09:18:07;11.23;;;6.50;;
66575;SDS011;53428;47.686;16.584;2023-05-19T09:23:13;7.68;;;5.20;;
66575;SDS011;53428;47.686;16.584;2023-05-19T09:28:14;11.48;;;5.82;;
66575;SDS011;53428;47.686;16.584;2023-05-19T09:33:21;6.40;;;5.45;;
66575;SDS011;53428;47.686;16.584;2023-05-19T09:38:21;12.48;;;4.32;;
66575;SDS011;53428;47.686;16.584;2023-05-19T09:43:22;9.40;;;4.22;;
66575;SDS011;53428;47.686;16.584;2023-05-19T09:48:21;6.05;;;3.78;;
66575;SDS011;53428;47.686;16.584;2023-05-19T09:53:25;5.95;;;3.90;;
66575;SDS011;53428;47.686;16.584;2023-05-19T09:58:25;5.57;;;4.22;;
66575;SDS011;53428;47.686;16.584;2023-05-19T10:03:25;5.97;;;4.18;;
66575;SDS011;53428;47.686;16.584;2023-05-19T10:08:26;5.30;;;3.83;;
66575;SDS011;53428;47.686;16.584;2023-05-19T10:13:28;8.90;;;4.43;;
66575;SDS011;53428;47.686;16.584;2023-05-19T10:18:28;4.68;;;4.07;;
66575;SDS011;53428;47.686;16.584;2023-05-19T10:23:30;10.25;;;4.78;;
66575;SDS011;53428;47.686;16.584;2023-05-19T10:28:38;5.78;;;4.35;;
66575;SDS011;53428;47.686;16.584;2023-05-19T10:39:10;6.63;;;4.32;;
66575;SDS011;53428;47.686;16.584;2023-05-19T10:44:29;6.65;;;4.53;;
66575;SDS011;53428;47.686;16.584;2023-05-19T10:49:59;6.28;;;4.00;;
66575;SDS011;53428;47.686;16.584;2023-05-19T10:54:59;8.38;;;4.32;;
66575;SDS011;53428;47.686;16.584;2023-05-19T11:00:03;5.65;;;4.13;;
66575;SDS011;53428;47.686;16.584;2023-05-19T11:10:27;4.97;;;3.35;;
66575;SDS011;53428;47.686;16.584;2023-05-19T11:15:27;4.22;;;2.72;;
66575;SDS011;53428;47.686;16.584;2023-05-19T11:20:27;6.50;;;3.35;;
66575;SDS011;53428;47.686;16.584;2023-05-19T11:25:39;5.72;;;3.00;;
66575;SDS011;53428;47.686;16.584;2023-05-19T11:30:40;6.85;;;3.20;;
66575;SDS011;53428;47.686;16.584;2023-05-19T11:35:47;4.72;;;2.92;;
66575;SDS011;53428;47.686;16.584;2023-05-19T11:40:51;5.03;;;3.28;;
66575;SDS011;53428;47.686;16.584;2023-05-19T11:45:54;3.80;;;2.97;;
66575;SDS011;53428;47.686;16.584;2023-05-19T11:50:54;8.13;;;2.85;;
66575;SDS011;53428;47.686;16.584;2023-05-19T11:55:54;3.60;;;2.25;;
66575;SDS011;53428;47.686;16.584;2023-05-19T12:00:54;6.53;;;2.70;;
66575;SDS011;53428;47.686;16.584;2023-05-19T12:05:53;5.05;;;3.05;;
66575;SDS011;53428;47.686;16.584;2023-05-19T12:10:53;4.05;;;2.80;;
66575;SDS011;53428;47.686;16.584;2023-05-19T12:15:52;3.80;;;2.65;;
66575;SDS011;53428;47.686;16.584;2023-05-19T12:20:52;5.13;;;2.80;;
66575;SDS011;53428;47.686;16.584;2023-05-19T12:25:52;7.75;;;3.30;;
66575;SDS011;53428;47.686;16.584;2023-05-19T12:30:51;5.80;;;3.10;;
66575;SDS011;53428;47.686;16.584;2023-05-19T12:35:52;3.72;;;2.70;;
66575;SDS011;53428;47.686;16.584;2023-05-19T12:40:52;4.75;;;2.88;;
66575;SDS011;53428;47.686;16.584;2023-05-19T12:45:52;3.80;;;2.63;;
66575;SDS011;53428;47.686;16.584;2023-05-19T12:50:51;4.07;;;2.40;;
66575;SDS011;53428;47.686;16.584;2023-05-19T12:55:54;7.30;;;3.05;;
66575;SDS011;53428;47.686;16.584;2023-05-19T13:00:57;3.42;;;2.70;;
66575;SDS011;53428;47.686;16.584;2023-05-19T13:05:57;4.25;;;2.63;;
66575;SDS011;53428;47.686;16.584;2023-05-19T13:10:57;5.57;;;3.00;;
66575;SDS011;53428;47.686;16.584;2023-05-19T13:15:56;5.32;;;3.17;;
66575;SDS011;53428;47.686;16.584;2023-05-19T13:20:56;4.10;;;3.05;;
66575;SDS011;53428;47.686;16.584;2023-05-19T13:25:55;3.33;;;2.53;;
66575;SDS011;53428;47.686;16.584;2023-05-19T13:30:55;2.75;;;2.42;;
66575;SDS011;53428;47.686;16.584;2023-05-19T13:36:01;3.20;;;2.60;;
66575;SDS011;53428;47.686;16.584;2023-05-19T13:41:00;3.22;;;2.53;;
66575;SDS011;53428;47.686;16.584;2023-05-19T13:46:00;3.70;;;2.17;;
66575;SDS011;53428;47.686;16.584;2023-05-19T13:50:59;8.23;;;3.47;;
66575;SDS011;53428;47.686;16.584;2023-05-19T13:55:59;5.88;;;2.60;;
66575;SDS011;53428;47.686;16.584;2023-05-19T14:00:59;5.28;;;3.35;;
66575;SDS011;53428;47.686;16.584;2023-05-19T14:05:58;3.53;;;2.58;;
66575;SDS011;53428;47.686;16.584;2023-05-19T14:10:58;4.00;;;2.15;;
66575;SDS011;53428;47.686;16.584;2023-05-19T14:15:57;3.83;;;2.47;;
66575;SDS011;53428;47.686;16.584;2023-05-19T14:20:56;2.67;;;2.38;;
66575;SDS011;53428;47.686;16.584;2023-05-19T14:25:56;1.75;;;1.63;;
66575;SDS011;53428;47.686;16.584;2023-05-19T14:30:55;2.30;;;2.10;;
66575;SDS011;53428;47.686;16.584;2023-05-19T14:35:55;4.40;;;2.80;;
66575;SDS011;53428;47.686;16.584;2023-05-19T14:40:57;3.35;;;1.85;;
66575;SDS011;53428;47.686;16.584;2023-05-19T14:45:57;3.08;;;2.38;;
66575;SDS011;53428;47.686;16.584;2023-05-19T14:50:57;3.13;;;2.53;;
66575;SDS011;53428;47.686;16.584;2023-05-19T14:55:56;3.88;;;2.92;;
66575;SDS011;53428;47.686;16.584;2023-05-19T15:00:58;5.22;;;3.20;;
66575;SDS011;53428;47.686;16.584;2023-05-19T15:05:57;3.85;;;2.78;;
66575;SDS011;53428;47.686;16.584;2023-05-19T15:10:57;3.25;;;2.38;;
66575;SDS011;53428;47.686;16.584;2023-05-19T15:15:57;3.60;;;2.20;;
66575;SDS011;53428;47.686;16.584;2023-05-19T15:20:56;3.95;;;2.83;;
66575;SDS011;53428;47.686;16.584;2023-05-19T15:25:55;5.25;;;3.15;;
66575;SDS011;53428;47.686;16.584;2023-05-19T15:30:55;6.07;;;2.90;;
66575;SDS011;53428;47.686;16.584;2023-05-19T15:35:55;3.47;;;2.85;;
66575;SDS011;53428;47.686;16.584;2023-05-19T15:40:55;2.70;;;2.50;;
66575;SDS011;53428;47.686;16.584;2023-05-19T15:45:54;4.50;;;3.10;;
66575;SDS011;53428;47.686;16.584;2023-05-19T15:50:54;3.95;;;2.97;;
66575;SDS011;53428;47.686;16.584;2023-05-19T15:55:55;4.10;;;3.17;;
66575;SDS011;53428;47.686;16.584;2023-05-19T16:00:55;2.67;;;2.47;;
66575;SDS011;53428;47.686;16.584;2023-05-19T16:05:54;2.65;;;2.25;;
66575;SDS011;53428;47.686;16.584;2023-05-19T16:10:54;8.98;;;3.15;;
66575;SDS011;53428;47.686;16.584;2023-05-19T16:15:54;3.58;;;2.67;;
66575;SDS011;53428;47.686;16.584;2023-05-19T16:20:53;3.70;;;2.78;;
66575;SDS011;53428;47.686;16.584;2023-05-19T16:25:53;3.30;;;3.00;;
66575;SDS011;53428;47.686;16.584;2023-05-19T16:30:59;2.95;;;2.65;;
66575;SDS011;53428;47.686;16.584;2023-05-19T16:35:58;2.75;;;2.38;;
66575;SDS011;53428;47.686;16.584;2023-05-19T16:40:58;2.63;;;2.42;;
66575;SDS011;53428;47.686;16.584;2023-05-19T16:45:57;2.05;;;1.73;;
66575;SDS011;53428;47.686;16.584;2023-05-19T16:50:57;5.85;;;2.50;;
66575;SDS011;53428;47.686;16.584;2023-05-19T16:55:57;3.70;;;2.90;;
66575;SDS011;53428;47.686;16.584;2023-05-19T17:00:59;2.38;;;2.17;;
66575;SDS011;53428;47.686;16.584;2023-05-19T17:05:58;4.93;;;2.40;;
66575;SDS011;53428;47.686;16.584;2023-05-19T17:10:58;4.82;;;3.28;;
66575;SDS011;53428;47.686;16.584;2023-05-19T17:15:58;7.90;;;3.15;;
66575;SDS011;53428;47.686;16.584;2023-05-19T17:20:57;2.83;;;2.45;;
66575;SDS011;53428;47.686;16.584;2023-05-19T17:26:01;3.58;;;2.92;;
66575;SDS011;53428;47.686;16.584;2023-05-19T17:31:07;5.65;;;3.20;;
66575;SDS011;53428;47.686;16.584;2023-05-19T17:36:07;4.40;;;3.00;;
66575;SDS011;53428;47.686;16.584;2023-05-19T17:41:07;5.75;;;3.05;;
66575;SDS011;53428;47.686;16.584;2023-05-19T17:46:11;4.40;;;2.90;;
66575;SDS011;53428;47.686;16.584;2023-05-19T17:51:11;3.63;;;2.95;;
66575;SDS011;53428;47.686;16.584;2023-05-19T17:56:10;4.30;;;3.13;;
66575;SDS011;53428;47.686;16.584;2023-05-19T18:01:10;4.38;;;2.75;;
66575;SDS011;53428;47.686;16.584;2023-05-19T18:06:09;5.00;;;3.58;;
66575;SDS011;53428;47.686;16.584;2023-05-19T18:11:09;4.38;;;3.15;;
66575;SDS011;53428;47.686;16.584;2023-05-19T18:16:13;3.67;;;3.10;;
66575;SDS011;53428;47.686;16.584;2023-05-19T18:21:13;5.40;;;4.28;;
66575;SDS011;53428;47.686;16.584;2023-05-19T18:26:15;6.20;;;4.55;;
66575;SDS011;53428;47.686;16.584;2023-05-19T18:31:15;9.32;;;5.82;;
66575;SDS011;53428;47.686;16.584;2023-05-19T18:36:17;8.63;;;5.95;;
66575;SDS011;53428;47.686;16.584;2023-05-19T18:41:16;9.77;;;6.10;;
66575;SDS011;53428;47.686;16.584;2023-05-19T18:46:16;13.20;;;6.03;;
66575;SDS011;53428;47.686;16.584;2023-05-19T18:51:16;7.35;;;5.45;;
66575;SDS011;53428;47.686;16.584;2023-05-19T18:56:24;7.90;;;5.32;;
66575;SDS011;53428;47.686;16.584;2023-05-19T19:01:24;11.45;;;6.00;;
66575;SDS011;53428;47.686;16.584;2023-05-19T19:06:24;8.30;;;5.80;;
66575;SDS011;53428;47.686;16.584;2023-05-19T19:11:23;8.65;;;5.32;;
66575;SDS011;53428;47.686;16.584;2023-05-19T19:16:22;9.30;;;6.50;;
66575;SDS011;53428;47.686;16.584;2023-05-19T19:21:22;8.27;;;5.82;;
66575;SDS011;53428;47.686;16.584;2023-05-19T19:26:22;10.90;;;6.95;;
66575;SDS011;53428;47.686;16.584;2023-05-19T19:31:23;13.60;;;7.03;;
66575;SDS011;53428;47.686;16.584;2023-05-19T19:36:26;16.00;;;6.35;;
66575;SDS011;53428;47.686;16.584;2023-05-19T19:41:26;15.43;;;9.65;;
66575;SDS011;53428;47.686;16.584;2023-05-19T19:46:27;14.30;;;7.20;;
66575;SDS011;53428;47.686;16.584;2023-05-19T19:51:27;11.40;;;7.35;;
66575;SDS011;53428;47.686;16.584;2023-05-19T19:56:26;12.93;;;8.45;;
66575;SDS011;53428;47.686;16.584;2023-05-19T20:01:26;14.38;;;6.68;;
66575;SDS011;53428;47.686;16.584;2023-05-19T20:06:25;11.02;;;7.20;;
66575;SDS011;53428;47.686;16.584;2023-05-19T20:11:25;10.80;;;7.55;;
66575;SDS011;53428;47.686;16.584;2023-05-19T20:16:24;12.13;;;7.93;;
66575;SDS011;53428;47.686;16.584;2023-05-19T20:21:24;17.67;;;8.32;;
66575;SDS011;53428;47.686;16.584;2023-05-19T20:26:23;13.50;;;8.00;;
66575;SDS011;53428;47.686;16.584;2023-05-19T20:31:23;11.02;;;8.48;;
66575;SDS011;53428;47.686;16.584;2023-05-19T20:36:23;18.23;;;8.27;;
66575;SDS011;53428;47.686;16.584;2023-05-19T20:41:23;9.73;;;7.70;;
66575;SDS011;53428;47.686;16.584;2023-05-19T20:46:22;9.68;;;7.07;;
66575;SDS011;53428;47.686;16.584;2023-05-19T20:51:21;28.42;;;15.88;;
66575;SDS011;53428;47.686;16.584;2023-05-19T20:56:23;19.08;;;7.88;;
66575;SDS011;53428;47.686;16.584;2023-05-19T21:01:22;10.18;;;7.75;;
66575;SDS011;53428;47.686;16.584;2023-05-19T21:06:23;10.82;;;7.38;;
66575;SDS011;53428;47.686;16.584;2023-05-19T21:11:22;10.20;;;7.10;;
66575;SDS011;53428;47.686;16.584;2023-05-19T21:16:21;13.77;;;8.45;;
66575;SDS011;53428;47.686;16.584;2023-05-19T21:21:21;14.27;;;7.07;;
66575;SDS011;53428;47.686;16.584;2023-05-19T21:26:20;14.95;;;8.07;;
66575;SDS011;53428;47.686;16.584;2023-05-19T21:31:20;14.18;;;8.73;;
66575;SDS011;53428;47.686;16.584;2023-05-19T21:36:19;12.88;;;8.35;;
66575;SDS011;53428;47.686;16.584;2023-05-19T21:41:18;11.18;;;7.95;;
66575;SDS011;53428;47.686;16.584;2023-05-19T21:46:19;13.68;;;7.75;;
66575;SDS011;53428;47.686;16.584;2023-05-19T21:51:18;15.85;;;7.78;;
66575;SDS011;53428;47.686;16.584;2023-05-19T21:56:18;14.38;;;7.00;;
66575;SDS011;53428;47.686;16.584;2023-05-19T22:01:17;9.52;;;7.22;;
66575;SDS011;53428;47.686;16.584;2023-05-19T22:06:16;11.48;;;8.20;;
66575;SDS011;53428;47.686;16.584;2023-05-19T22:11:21;10.38;;;7.72;;
66575;SDS011;53428;47.686;16.584;2023-05-19T22:16:21;10.27;;;6.95;;
66575;SDS011;53428;47.686;16.584;2023-05-19T22:21:21;7.88;;;6.32;;
66575;SDS011;53428;47.686;16.584;2023-05-19T22:26:20;12.25;;;6.88;;
66575;SDS011;53428;47.686;16.584;2023-05-19T22:31:20;11.57;;;7.60;;
66575;SDS011;53428;47.686;16.584;2023-05-19T22:36:19;9.20;;;7.13;;
66575;SDS011;53428;47.686;16.584;2023-05-19T22:41:18;8.38;;;6.97;;
66575;SDS011;53428;47.686;16.584;2023-05-19T22:46:19;10.63;;;7.38;;
66575;SDS011;53428;47.686;16.584;2023-05-19T22:51:18;8.90;;;6.63;;
66575;SDS011;53428;47.686;16.584;2023-05-19T22:56:18;11.13;;;6.45;;
66575;SDS011;53428;47.686;16.584;2023-05-19T23:01:17;9.75;;;6.53;;
66575;SDS011;53428;47.686;16.584;2023-05-19T23:06:17;10.30;;;6.10;;
66575;SDS011;53428;47.686;16.584;2023-05-19T23:11:16;10.60;;;6.78;;
66575;SDS011;53428;47.686;16.584;2023-05-19T23:16:16;6.90;;;5.40;;
66575;SDS011;53428;47.686;16.584;2023-05-19T23:21:15;9.52;;;6.07;;
66575;SDS011;53428;47.686;16.584;2023-05-19T23:26:14;10.88;;;5.95;;
66575;SDS011;53428;47.686;16.584;2023-05-19T23:31:14;8.00;;;5.90;;
66575;SDS011;53428;47.686;16.584;2023-05-19T23:36:14;6.97;;;5.47;;
66575;SDS011;53428;47.686;16.584;2023-05-19T23:41:13;8.55;;;5.95;;
66575;SDS011;53428;47.686;16.584;2023-05-19T23:46:13;8.98;;;5.88;;
66575;SDS011;53428;47.686;16.584;2023-05-19T23:51:13;8.77;;;5.72;;
66575;SDS011;53428;47.686;16.584;2023-05-19T23:56:12;6.60;;;5.28;;
